HUEN

Entebbe International Airport

Kampala, Uganda
METAR HUEN 151800Z 34002KT 9000 FEW022 FEW024CB 22/17 Q1016
Observed Flight Rules
Feb-15 @ 18:00 UTC (an hour ago) Visual Flight Rules
Wind Visibility Clouds
340° at 2 knots 8,996 meters
  • Few at 2,200' AGL
  • Few at 2,400' AGL
Temperatures Readings
Current 22°C / 72°F
Dewpoint 17°C / 63°F
Humidity 73%
Altimeter 30" Hg
Pressure 1015.92 hPa
Elevation 1155
METAR HUEN 151800Z 34002KT 9000 FEW022 FEW024CB 22/17 Q1016
Observed Flight Rules
Feb-15 @ 18:00 UTC
(an hour ago)
VFR
Wind Visibility
340° at 2 knots 8,996 meters
Clouds
  • Few at 2,200' AGL
  • Few at 2,400' AGL
Temperature Dewpoint
22°C / 72°F 17°C / 63°F
Humidity Altimeter Pressure
73% 30" Hg 1015.92 hPa